Главная страница
METAR-TAF:

METAR-TAF

Аэропорты :

Caldwell, Нью-Джерси, США

широта: 40-52-35N, долгота: 074-16-59W, высота над уровнем моря: 52 м

Текущие метеонаблюдения

Эта сводка был подготовлена 59 минут назад, в 13:53 UTC
Ветер 3 Узел от западный-юго-западный
Температура 26°C
Влажность 74%
Давление 1020 hPa
Видимость: 16.1 км
небольшая облачность на высоте 1300 фута

METAR: KCDW 091353Z 25003KT 10SM FEW013 26/21 A3013 RMK AO2 SLP207 T02610211 $

Время: 10:52 (14:52 UTC)


TAF: отсутствует

Метеонаблюдения и прогнозы для более 4000 аэропортов (сводки METAR и TAF).

Имеющиеся станции представлены на карте желтыми и красными точками.

Чтобы увидеть название станции, наведите на нее мышь.

Затем щелкните, чтобы увидеть метеонаблюдения и метеопрогнозы.

Управление картой: чтобы увеличить масштаб, щелкните зеленые кнопки с черным крестиком; чтобы уменьшить масштаб, щелкните зеленую кнопку с тире; для просмотра соседних карт щелкайте зеленые стрелки.


METAR-TAF: